Time;durP1;ratioP1;P1;durP2;ratioP2;P2;SDS_P1;SDS_P2;PMS_P1;PMS_P2;Temp;Humidity;BMP_temperature;BMP_pressure;BME280_temperature;BME280_humidity;BME280_pressure;Samples;Min_cycle;Max_cycle;Signal;HPM_P1;HPM_P2
2021/03/27 00:02:36;;;;;;;82.20;34.63;;;26.50;2201.60;;;;;;4977044;28;20026;-68
2021/03/27 00:05:40;;;;;;;79.75;34.85;;;26.50;2201.60;;;;;;4967118;28;20126;-68
2021/03/27 00:08:21;;;;;;;83.07;37.05;;;51.20;2227.20;;;;;;4938818;29;20082;-68
2021/03/27 00:11:10;;;;;;;86.20;37.78;;;51.20;2227.20;;;;;;4976566;28;20037;-69
2021/03/27 00:13:58;;;;;;;82.68;35.55;;;26.50;2201.60;;;;;;4976344;28;20019;-68
2021/03/27 00:16:42;;;;;;;74.63;35.17;;;26.50;2201.60;;;;;;4975361;28;20018;-68
2021/03/27 00:19:34;;;;;;;80.32;36.10;;;26.50;2201.60;;;;;;4989529;28;20069;-68
2021/03/27 00:22:09;;;;;;;81.75;37.17;;;26.50;2201.60;;;;;;5002481;28;20038;-68
2021/03/27 00:25:25;;;;;;;74.85;36.60;;;26.50;2201.60;;;;;;5007351;28;20022;-68
2021/03/27 00:28:09;;;;;;;90.75;40.35;;;26.50;2201.60;;;;;;4998843;28;20028;-70
2021/03/27 00:30:42;;;;;;;108.38;48.05;;;26.50;2201.60;;;;;;4999330;28;20430;-68
2021/03/27 00:33:09;;;;;;;92.13;43.50;;;26.50;2201.60;;;;;;5005661;28;20499;-68
2021/03/27 00:35:41;;;;;;;81.47;39.70;;;26.40;2201.60;;;;;;4994260;28;20494;-69
2021/03/27 00:38:15;;;;;;;84.60;41.90;;;26.40;2201.60;;;;;;5003050;28;20022;-68
2021/03/27 00:40:47;;;;;;;88.32;41.38;;;26.40;2201.60;;;;;;4993074;28;20093;-68
2021/03/27 00:43:27;;;;;;;85.00;41.42;;;26.30;2201.60;;;;;;4993562;28;20503;-67
2021/03/27 00:45:57;;;;;;;88.78;41.28;;;26.30;2201.60;;;;;;4993537;28;20053;-67
2021/03/27 00:48:47;;;;;;;79.30;35.30;;;26.20;2201.60;;;;;;4993412;28;20038;-69
2021/03/27 00:51:22;;;;;;;71.22;34.70;;;26.10;2201.60;;;;;;4993573;28;20764;-69
2021/03/27 00:54:10;;;;;;;69.57;35.03;;;26.00;2201.60;;;;;;4991300;28;20505;-69
2021/03/27 00:57:09;;;;;;;67.10;33.08;;;25.90;2201.60;;;;;;4993396;28;20061;-69
2021/03/27 00:59:41;;;;;;;75.32;36.03;;;26.00;2201.60;;;;;;4993436;28;20093;-68
2021/03/27 01:02:11;;;;;;;62.38;31.33;;;25.90;2201.60;;;;;;4993602;28;20033;-68
2021/03/27 01:04:40;;;;;;;53.33;29.15;;;25.80;2201.60;;;;;;4994166;28;20027;-68
2021/03/27 01:07:12;;;;;;;52.05;26.45;;;25.80;2201.60;;;;;;5004631;28;20022;-68
2021/03/27 01:09:48;;;;;;;61.88;30.10;;;25.80;2201.60;;;;;;4997372;28;20498;-68
2021/03/27 01:12:28;;;;;;;63.05;31.75;;;25.80;2201.60;;;;;;4992929;28;20058;-68
2021/03/27 01:14:59;;;;;;;63.28;30.45;;;25.70;2201.60;;;;;;4993135;28;20025;-68
2021/03/27 01:17:29;;;;;;;60.03;29.10;;;25.60;2201.60;;;;;;4992770;28;20633;-68
2021/03/27 01:20:02;;;;;;;67.60;31.85;;;25.70;2201.60;;;;;;4992798;28;20070;-68
2021/03/27 01:22:28;;;;;;;57.63;29.27;;;25.60;2201.60;;;;;;4992961;28;20037;-68
2021/03/27 01:25:00;;;;;;;60.10;29.40;;;25.60;2201.60;;;;;;4993004;28;20022;-68
2021/03/27 01:27:31;;;;;;;55.42;26.85;;;0.90;2201.60;;;;;;4986774;28;20023;-68
2021/03/27 01:30:34;;;;;;;58.40;28.10;;;0.90;2201.60;;;;;;4985027;28;20034;-67
2021/03/27 01:33:24;;;;;;;53.78;25.40;;;25.70;2201.60;;;;;;4963676;28;20038;-68
2021/03/27 01:36:13;;;;;;;55.43;25.97;;;25.80;2201.60;;;;;;4973913;28;20027;-68
2021/03/27 01:38:50;;;;;;;72.82;30.58;;;25.90;2201.60;;;;;;4977497;28;20027;-68
2021/03/27 01:41:28;;;;;;;52.50;25.35;;;25.90;2201.60;;;;;;4973831;28;20093;-68
2021/03/27 01:44:17;;;;;;;47.67;23.75;;;25.90;2201.60;;;;;;4975065;28;20055;-68
2021/03/27 01:47:02;;;;;;;51.03;24.98;;;26.00;2201.60;;;;;;4975605;28;20062;-68
2021/03/27 01:50:09;;;;;;;61.15;29.77;;;25.90;2201.60;;;;;;4976540;28;20026;-68
2021/03/27 01:52:52;;;;;;;64.95;29.70;;;25.80;2201.60;;;;;;4980199;28;20038;-68
2021/03/27 01:55:36;;;;;;;74.07;31.67;;;25.80;2201.60;;;;;;4982031;28;20088;-68
2021/03/27 01:58:14;;;;;;;64.45;30.58;;;25.80;2201.60;;;;;;4991503;28;20413;-67
2021/03/27 02:01:10;;;;;;;65.03;30.20;;;25.80;2201.60;;;;;;4992650;28;20034;-67
2021/03/27 02:03:38;;;;;;;68.47;31.80;;;25.80;2201.60;;;;;;4991214;28;20042;-68
2021/03/27 02:06:20;;;;;;;77.55;34.05;;;25.80;2201.60;;;;;;4992065;28;20109;-68
2021/03/27 02:09:04;;;;;;;67.88;32.28;;;25.80;2201.60;;;;;;4994543;28;20030;-67
2021/03/27 02:11:43;;;;;;;72.32;32.75;;;25.80;2201.60;;;;;;4993988;28;20029;-67
2021/03/27 02:14:27;;;;;;;77.40;34.53;;;25.70;2201.60;;;;;;4991905;28;20046;-68
2021/03/27 02:17:02;;;;;;;73.43;33.97;;;25.60;2201.60;;;;;;4991829;28;20516;-67
2021/03/27 02:19:49;;;;;;;64.63;32.00;;;0.90;2201.60;;;;;;4992637;28;20035;-68
2021/03/27 02:22:14;;;;;;;82.20;35.83;;;0.80;2201.60;;;;;;4993213;28;20073;-66
2021/03/27 02:25:13;;;;;;;76.60;37.17;;;0.80;2201.60;;;;;;4995424;28;20026;-75
2021/03/27 02:28:04;;;;;;;78.90;37.30;;;0.80;2201.60;;;;;;4981955;28;20022;-67
2021/03/27 02:30:37;;;;;;;71.30;32.72;;;0.80;2201.60;;;;;;5007067;28;20084;-67
2021/03/27 02:33:27;;;;;;;64.47;30.05;;;0.80;2201.60;;;;;;4995538;28;20380;-66
2021/03/27 02:36:37;;;;;;;58.20;29.38;;;0.80;2201.60;;;;;;4993298;28;20019;-66
2021/03/27 02:39:24;;;;;;;51.43;25.27;;;0.80;2201.60;;;;;;5016987;28;20029;-67
2021/03/27 02:42:05;;;;;;;44.97;21.85;;;0.80;2201.60;;;;;;5011432;28;20330;-68
2021/03/27 02:44:43;;;;;;;44.45;22.52;;;0.80;2201.60;;;;;;5004114;28;20042;-67
2021/03/27 02:47:11;;;;;;;38.65;20.67;;;0.90;2201.60;;;;;;5011067;28;20437;-67
2021/03/27 02:49:55;;;;;;;45.72;22.70;;;0.90;2201.60;;;;;;5011152;28;20049;-67
2021/03/27 02:52:47;;;;;;;44.35;22.02;;;0.80;2201.60;;;;;;5011291;28;20073;-67
2021/03/27 02:55:37;;;;;;;44.53;20.80;;;0.80;2201.60;;;;;;5011401;28;20491;-67
2021/03/27 02:58:18;;;;;;;44.58;21.08;;;0.80;2201.60;;;;;;5001291;28;20475;-67
2021/03/27 03:00:55;;;;;;;54.35;23.75;;;0.60;2201.60;;;;;;5010909;28;20037;-66
2021/03/27 03:03:31;;;;;;;86.88;31.65;;;0.70;2201.60;;;;;;5011267;28;20076;-67
2021/03/27 03:06:14;;;;;;;69.03;28.98;;;0.70;2201.60;;;;;;5011254;28;20080;-67
2021/03/27 03:09:16;;;;;;;44.80;21.80;;;0.70;2201.60;;;;;;4991932;28;20026;-66
2021/03/27 03:12:06;;;;;;;29.20;16.42;;;0.70;2201.60;;;;;;5011140;28;20025;-68
2021/03/27 03:14:51;;;;;;;28.15;15.93;;;0.80;2201.60;;;;;;5010874;28;20052;-67
2021/03/27 03:17:29;;;;;;;28.15;16.27;;;0.80;2201.60;;;;;;5012076;28;20026;-67
2021/03/27 03:20:06;;;;;;;27.33;15.80;;;0.70;2201.60;;;;;;5014824;28;20080;-67
2021/03/27 03:22:45;;;;;;;25.95;14.80;;;0.80;2201.60;;;;;;5014929;28;20029;-66
2021/03/27 03:25:16;;;;;;;39.00;18.60;;;0.80;2201.60;;;;;;5015159;28;20022;-67
2021/03/27 03:27:53;;;;;;;48.78;20.30;;;0.80;2201.60;;;;;;5014693;28;20025;-77
2021/03/27 03:31:01;;;;;;;42.17;19.25;;;0.80;2201.60;;;;;;5014841;28;20026;-67
2021/03/27 03:33:59;;;;;;;61.92;24.50;;;0.80;2201.60;;;;;;5014106;28;20033;-67
2021/03/27 03:36:37;;;;;;;41.72;19.45;;;0.90;2201.60;;;;;;5014711;28;20077;-67
2021/03/27 03:39:16;;;;;;;36.88;18.48;;;0.90;2201.60;;;;;;5014072;28;20109;-67
2021/03/27 03:42:09;;;;;;;37.42;17.77;;;25.60;2201.60;;;;;;5011000;28;20022;-67
2021/03/27 03:44:56;;;;;;;45.22;19.92;;;25.60;2201.60;;;;;;5008238;28;20049;-66
2021/03/27 03:47:49;;;;;;;43.95;21.05;;;25.70;2201.60;;;;;;5014376;28;20050;-67
2021/03/27 03:50:27;;;;;;;42.28;20.92;;;25.70;2201.60;;;;;;5014358;28;20056;-67
2021/03/27 03:53:14;;;;;;;37.63;19.45;;;25.70;2201.60;;;;;;5014304;28;20018;-67
2021/03/27 03:55:57;;;;;;;38.65;20.35;;;25.70;2201.60;;;;;;5014606;28;20108;-67
2021/03/27 03:58:47;;;;;;;34.40;17.90;;;25.70;2201.60;;;;;;5004136;28;20026;-66
2021/03/27 04:01:22;;;;;;;27.33;14.88;;;25.60;2201.60;;;;;;5014870;28;20160;-67
2021/03/27 04:03:58;;;;;;;37.15;19.45;;;25.60;2201.60;;;;;;5014667;28;20497;-67
2021/03/27 04:06:31;;;;;;;36.90;19.17;;;0.90;2201.60;;;;;;5010502;28;20026;-67
2021/03/27 04:09:19;;;;;;;38.10;19.65;;;0.70;2201.60;;;;;;5006728;28;20030;-68
2021/03/27 04:11:57;;;;;;;34.60;19.60;;;0.50;2201.60;;;;;;5013940;28;20021;-66
2021/03/27 04:14:35;;;;;;;36.97;20.73;;;0.30;2201.60;;;;;;5013979;28;20050;-66
2021/03/27 04:17:10;;;;;;;44.13;21.48;;;0.10;2201.60;;;;;;5014043;28;20479;-67
2021/03/27 04:19:43;;;;;;;39.75;21.48;;;0.00;2201.60;;;;;;5015151;28;20038;-67
2021/03/27 04:22:30;;;;;;;30.63;16.88;;;12.90;2201.60;;;;;;5013955;28;20029;-71
2021/03/27 04:25:10;;;;;;;48.95;20.67;;;0.10;2201.60;;;;;;5013654;28;20033;-67
2021/03/27 04:27:55;;;;;;;51.35;21.45;;;0.30;2201.60;;;;;;5013723;28;20088;-67
2021/03/27 04:30:51;;;;;;;40.75;21.58;;;0.40;2201.60;;;;;;5012456;28;20029;-67
2021/03/27 04:33:39;;;;;;;39.25;20.15;;;0.50;2201.60;;;;;;5012215;28;20038;-67
2021/03/27 04:36:12;;;;;;;45.28;20.85;;;0.50;2201.60;;;;;;5013678;28;20435;-67
2021/03/27 04:38:45;;;;;;;47.17;22.15;;;0.50;2201.60;;;;;;5012786;28;20076;-67
2021/03/27 04:41:32;;;;;;;55.83;25.85;;;0.60;2201.60;;;;;;5013627;28;20037;-66
2021/03/27 04:44:17;;;;;;;34.30;17.80;;;0.60;2201.60;;;;;;5006844;28;20117;-67
2021/03/27 04:47:02;;;;;;;39.80;20.02;;;0.90;2201.60;;;;;;5013366;28;20128;-68
2021/03/27 04:49:44;;;;;;;37.45;19.75;;;25.80;2201.60;;;;;;4998537;28;20511;-67
2021/03/27 04:52:40;;;;;;;36.45;19.75;;;26.00;2201.60;;;;;;5009175;28;20027;-67
2021/03/27 04:55:27;;;;;;;37.92;20.02;;;26.30;2201.60;;;;;;5000867;28;20100;-67
2021/03/27 04:58:19;;;;;;;37.00;19.48;;;51.20;2227.20;;;;;;5002792;28;20017;-67
2021/03/27 05:01:10;;;;;;;32.80;18.52;;;51.50;2227.20;;;;;;5000528;28;20081;-68
2021/03/27 05:03:55;;;;;;;32.17;17.92;;;51.80;2227.20;;;;;;5000745;28;20767;-67
2021/03/27 05:06:38;;;;;;;30.60;16.90;;;76.80;2227.20;;;;;;4998737;28;20137;-67
2021/03/27 05:09:28;;;;;;;30.20;17.52;;;77.10;2227.20;;;;;;5002283;28;20027;-67
2021/03/27 05:11:57;;;;;;;31.52;16.88;;;77.40;2227.20;;;;;;4994827;28;20025;-67
2021/03/27 05:14:47;;;;;;;26.42;15.98;;;77.70;2201.60;;;;;;4994613;28;20438;-68
2021/03/27 05:17:19;;;;;;;25.45;15.15;;;102.70;2124.80;;;;;;5004434;28;20364;-67
2021/03/27 05:20:11;;;;;;;25.40;15.40;;;103.00;2099.20;;;;;;5004318;28;20486;-67
2021/03/27 05:22:50;;;;;;;25.50;16.00;;;103.30;2048.00;;;;;;5002126;28;20042;-68
2021/03/27 05:25:37;;;;;;;26.05;16.40;;;128.50;1996.80;;;;;;4992757;28;20033;-68
2021/03/27 05:28:14;;;;;;;26.77;16.15;;;128.80;1920.00;;;;;;5003283;28;20068;-69
2021/03/27 05:31:05;;;;;;;23.98;15.75;;;153.80;1868.80;;;;;;5005736;28;20029;-67
2021/03/27 05:34:09;;;;;;;26.80;16.75;;;154.20;1843.20;;;;;;4995393;28;20109;-68
2021/03/27 05:36:37;;;;;;;25.60;16.42;;;179.30;1792.00;;;;;;4998362;28;20027;-68
2021/03/27 05:39:06;;;;;;;26.55;16.60;;;179.70;1715.20;;;;;;5011147;28;20052;-68
2021/03/27 05:41:47;;;;;;;25.60;16.73;;;180.10;1664.00;;;;;;5012204;28;20033;-68
2021/03/27 05:44:32;;;;;;;25.15;16.65;;;205.20;1638.40;;;;;;5005658;28;20388;-68
2021/03/27 05:47:34;;;;;;;26.63;17.92;;;230.40;1561.60;;;;;;5012455;28;20040;-68
2021/03/27 05:50:11;;;;;;;30.98;18.90;;;231.00;1510.40;;;;;;5012171;28;20042;-67
2021/03/27 05:52:54;;;;;;;32.08;20.27;;;256.10;1459.20;;;;;;5012190;28;20018;-69
2021/03/27 05:55:39;;;;;;;34.60;21.65;;;256.80;1408.00;;;;;;5012213;28;20033;-69
2021/03/27 05:58:43;;;;;;;31.33;21.67;;;281.70;1408.00;;;;;;5002242;28;20021;-69
2021/03/27 06:01:08;;;;;;;31.90;23.00;;;282.50;1331.20;;;;;;5010774;28;20042;-70
2021/03/27 06:04:11;;;;;;;34.25;23.15;;;308.00;1305.60;;;;;;5012085;28;20033;-69
2021/03/27 06:06:47;;;;;;;37.30;25.25;;;333.20;1305.60;;;;;;5007254;28;20046;-69
2021/03/27 06:09:32;;;;;;;30.65;21.67;;;333.60;1254.40;;;;;;5006525;28;20030;-69
2021/03/27 06:12:15;;;;;;;25.65;18.63;;;333.30;1280.00;;;;;;5012327;28;20022;-69
2021/03/27 06:15:18;;;;;;;26.45;19.13;;;358.50;1228.80;;;;;;5012033;28;20711;-69
2021/03/27 06:18:05;;;;;;;29.13;20.67;;;359.00;1203.20;;;;;;5012066;28;20025;-68
2021/03/27 06:20:50;;;;;;;27.85;20.67;;;358.80;1203.20;;;;;;5012569;28;20429;-67
2021/03/27 06:23:49;;;;;;;30.08;23.05;;;359.00;1203.20;;;;;;5011585;28;20080;-69
2021/03/27 06:26:44;;;;;;;57.03;35.55;;;384.30;1177.60;;;;;;5011366;28;20026;-69
2021/03/27 06:29:39;;;;;;;48.30;32.15;;;359.30;1177.60;;;;;;5011165;28;20091;-76
2021/03/27 06:32:40;;;;;;;35.85;27.50;;;359.10;1203.20;;;;;;4988063;28;20096;-69
2021/03/27 06:35:43;;;;;;;31.67;25.52;;;359.20;1177.60;;;;;;5011329;28;20030;-72
2021/03/27 06:38:43;;;;;;;30.48;23.75;;;409.90;1126.40;;;;;;5011404;28;20485;-69
2021/03/27 06:41:27;;;;;;;38.17;27.38;;;410.30;1100.80;;;;;;5011531;28;20028;-69
2021/03/27 06:44:11;;;;;;;25.15;19.00;;;435.20;1100.80;;;;;;5004943;28;20050;-69
2021/03/27 06:47:14;;;;;;;21.95;17.60;;;410.40;1075.20;;;;;;5007313;28;20037;-69
2021/03/27 06:50:04;;;;;;;23.05;17.48;;;384.80;1100.80;;;;;;5003252;28;20844;-69
2021/03/27 06:52:42;;;;;;;20.90;16.13;;;384.70;1100.80;;;;;;4972406;28;20398;-68
2021/03/27 06:55:26;;;;;;;21.50;17.33;;;410.30;1100.80;;;;;;5004533;28;20050;-69
2021/03/27 06:58:07;;;;;;;22.75;16.58;;;435.70;1049.60;;;;;;5004632;28;20064;-69
2021/03/27 07:01:02;;;;;;;20.80;16.88;;;461.10;1024.00;;;;;;5001982;28;20021;-69
2021/03/27 07:03:48;;;;;;;23.75;17.55;;;460.90;1049.60;;;;;;4998963;28;20034;-69
2021/03/27 07:06:33;;;;;;;23.92;17.60;;;486.50;998.40;;;;;;5004512;28;20440;-69
2021/03/27 07:09:35;;;;;;;23.13;18.35;;;486.80;998.40;;;;;;5002158;28;20033;-69
2021/03/27 07:12:20;;;;;;;22.60;18.48;;;461.30;1024.00;;;;;;4999367;28;20118;-69
2021/03/27 07:14:49;;;;;;;19.92;16.63;;;486.50;998.40;;;;;;5006664;28;20014;-72
2021/03/27 07:17:34;;;;;;;19.90;16.30;;;512.70;896.00;;;;;;5003917;28;20022;-68
2021/03/27 07:20:23;;;;;;;23.17;17.98;;;538.10;896.00;;;;;;5007385;28;20034;-67
2021/03/27 07:23:07;;;;;;;23.63;18.27;;;538.30;896.00;;;;;;5003002;28;20030;-72
2021/03/27 07:26:02;;;;;;;23.20;17.98;;;538.30;896.00;;;;;;5005380;28;20048;-69
2021/03/27 07:28:40;;;;;;;21.88;17.20;;;563.60;870.40;;;;;;5006903;28;20119;-67
2021/03/27 07:31:18;;;;;;;19.95;15.55;;;589.60;819.20;;;;;;5001915;28;20430;-67
2021/03/27 07:34:08;;;;;;;17.90;14.43;;;564.10;844.80;;;;;;4995934;28;20022;-70
2021/03/27 07:36:58;;;;;;;18.23;14.95;;;563.60;870.40;;;;;;5003808;28;20468;-69
2021/03/27 07:39:24;;;;;;;17.67;14.90;;;564.10;844.80;;;;;;5014336;28;20025;-70
2021/03/27 07:42:18;;;;;;;19.55;14.88;;;589.40;819.20;;;;;;5014544;28;20030;-70
2021/03/27 07:45:26;;;;;;;18.75;15.43;;;640.00;768.00;;;;;;5007376;28;20061;-70
2021/03/27 07:48:21;;;;;;;18.50;14.95;;;640.90;716.80;;;;;;5013967;28;20418;-70
2021/03/27 07:50:58;;;;;;;18.17;14.57;;;640.60;742.40;;;;;;5013555;28;20038;-69
2021/03/27 07:53:39;;;;;;;19.48;16.08;;;640.70;742.40;;;;;;5014513;28;20486;-70
2021/03/27 07:56:23;;;;;;;19.67;16.08;;;717.20;742.40;;;;;;5013384;28;20104;-70
2021/03/27 07:59:04;;;;;;;21.65;17.80;;;742.80;716.80;;;;;;5007537;28;20042;-70
2021/03/27 08:02:00;;;;;;;20.20;16.00;;;691.30;742.40;;;;;;5014136;28;20053;-69
2021/03/27 08:04:50;;;;;;;20.52;16.50;;;640.40;742.40;;;;;;4997482;28;20398;-69
2021/03/27 08:07:52;;;;;;;21.00;16.50;;;717.20;742.40;;;;;;4999354;28;20034;-70
2021/03/27 08:10:45;;;;;;;19.33;15.07;;;666.20;768.00;;;;;;4997888;28;20071;-70
2021/03/27 08:13:25;;;;;;;21.10;15.10;;;691.70;716.80;;;;;;5008822;28;20493;-70
2021/03/27 08:16:24;;;;;;;20.15;15.27;;;691.70;716.80;;;;;;5005352;28;20050;-69
2021/03/27 08:19:15;;;;;;;19.02;14.35;;;717.00;716.80;;;;;;4998045;28;20085;-70
2021/03/27 08:22:00;;;;;;;18.88;15.23;;;716.90;742.40;;;;;;5009048;28;20436;-69
2021/03/27 08:24:50;;;;;;;21.75;17.02;;;717.60;716.80;;;;;;4997932;28;20098;-71
2021/03/27 08:27:42;;;;;;;20.45;15.70;;;742.60;716.80;;;;;;4997465;28;20105;-69
2021/03/27 08:30:32;;;;;;;22.92;17.27;;;742.60;716.80;;;;;;5000359;28;20051;-70
2021/03/27 08:33:31;;;;;;;15.80;13.88;;;793.60;691.20;;;;;;4997725;28;20030;-69
2021/03/27 08:36:04;;;;;;;19.15;16.08;;;819.30;665.60;;;;;;4997482;28;20102;-67
2021/03/27 08:38:33;;;;;;;17.45;13.60;;;819.20;665.60;;;;;;5010560;28;20025;-68
2021/03/27 08:41:20;;;;;;;13.13;10.88;;;819.20;665.60;;;;;;5013685;28;20016;-68
2021/03/27 08:43:55;;;;;;;19.42;13.18;;;742.80;716.80;;;;;;5006884;28;20042;-67
2021/03/27 08:46:58;;;;;;;14.35;12.18;;;793.70;691.20;;;;;;5013477;28;20029;-68
2021/03/27 08:49:26;;;;;;;13.55;10.80;;;794.00;665.60;;;;;;5012691;28;20033;-71
2021/03/27 08:52:29;;;;;;;17.27;13.02;;;794.10;665.60;;;;;;5013457;28;20171;-68
2021/03/27 08:55:04;;;;;;;14.15;11.07;;;820.10;640.00;;;;;;5013468;28;20049;-69
2021/03/27 08:57:39;;;;;;;13.77;11.35;;;794.20;665.60;;;;;;5002933;28;20026;-69
2021/03/27 09:00:14;;;;;;;13.82;10.75;;;819.90;640.00;;;;;;4983040;28;20034;-68
2021/03/27 09:02:51;;;;;;;14.25;11.20;;;768.60;665.60;;;;;;4995020;28;20439;-69
2021/03/27 09:05:32;;;;;;;12.63;10.93;;;870.90;614.40;;;;;;5002125;28;20018;-69
2021/03/27 09:08:30;;;;;;;12.85;10.23;;;870.50;614.40;;;;;;5000078;28;20519;-68
2021/03/27 09:11:35;;;;;;;13.32;10.25;;;922.50;563.20;;;;;;5000918;28;20069;-69
2021/03/27 09:14:28;;;;;;;13.90;11.20;;;922.50;563.20;;;;;;5000054;28;20050;-70
2021/03/27 09:17:18;;;;;;;12.40;10.50;;;922.50;563.20;;;;;;4994962;28;20554;-69
2021/03/27 09:19:52;;;;;;;14.15;11.32;;;871.20;588.80;;;;;;5002724;28;20029;-69
2021/03/27 09:22:49;;;;;;;12.50;9.57;;;896.40;563.20;;;;;;5001493;28;20026;-68
2021/03/27 09:25:53;;;;;;;17.60;11.65;;;922.30;563.20;;;;;;4994083;28;20034;-69
2021/03/27 09:28:34;;;;;;;12.45;9.98;;;896.50;563.20;;;;;;5003226;28;20247;-69
2021/03/27 09:31:34;;;;;;;11.20;8.85;;;947.60;537.60;;;;;;4995415;28;20037;-68
2021/03/27 09:34:14;;;;;;;11.03;9.37;;;922.30;563.20;;;;;;4995665;28;20030;-69
2021/03/27 09:37:05;;;;;;;;;;;973.10;537.60;;;;;;5000046;28;20037;-69
2021/03/27 09:39:49;;;;;;;13.73;10.90;;;896.70;563.20;;;;;;4990967;28;19909;-69
2021/03/27 09:42:21;;;;;;;12.32;9.95;;;921.80;588.80;;;;;;4992285;28;20507;-69
2021/03/27 09:45:14;;;;;;;18.65;12.40;;;973.40;537.60;;;;;;4998110;28;20030;-69
2021/03/27 09:48:15;;;;;;;12.00;9.55;;;947.80;537.60;;;;;;5003650;28;20364;-69
2021/03/27 09:50:52;;;;;;;12.90;10.15;;;998.80;537.60;;;;;;4997660;28;20023;-68
2021/03/27 09:53:45;;;;;;;11.05;8.65;;;999.10;537.60;;;;;;4992457;28;20439;-68
2021/03/27 09:56:37;;;;;;;14.27;11.43;;;1049.60;537.60;;;;;;4977344;28;20031;-68
2021/03/27 09:59:22;;;;;;;12.23;9.73;;;998.50;563.20;;;;;;4975395;28;20042;-68
2021/03/27 10:02:00;;;;;;;12.23;10.23;;;998.90;537.60;;;;;;4973862;28;20019;-68
2021/03/27 10:04:35;;;;;;;11.65;8.65;;;1024.50;512.00;;;;;;4973390;28;20053;-69
2021/03/27 10:07:38;;;;;;;10.82;8.75;;;1024.90;512.00;;;;;;4972996;28;20101;-68
2021/03/27 10:10:35;;;;;;;10.30;8.13;;;999.30;537.60;;;;;;4974438;28;20027;-68
2021/03/27 10:13:32;;;;;;;16.02;9.27;;;1049.60;537.60;;;;;;4977123;28;20026;-68
2021/03/27 10:15:59;;;;;;;12.93;10.13;;;1075.70;486.40;;;;;;4983642;28;20520;-69
2021/03/27 10:18:41;;;;;;;12.32;10.10;;;1024.90;512.00;;;;;;4991520;28;20029;-72
2021/03/27 10:21:15;;;;;;;14.18;9.20;;;1075.40;512.00;;;;;;4991923;28;20499;-73
2021/03/27 10:24:16;;;;;;;13.57;9.73;;;1049.80;537.60;;;;;;4991765;28;20739;-69
2021/03/27 10:26:57;;;;;;;9.77;8.77;;;1075.20;512.00;;;;;;4991795;28;20269;-69
2021/03/27 10:29:50;;;;;;;11.80;9.20;;;1049.60;537.60;;;;;;4991329;28;20026;-68
2021/03/27 10:32:25;;;;;;;14.50;10.80;;;1076.10;486.40;;;;;;4976264;28;20034;-68
2021/03/27 10:35:04;;;;;;;14.93;11.52;;;1101.70;486.40;;;;;;4986334;28;20549;-69
2021/03/27 10:37:56;;;;;;;13.80;10.15;;;1049.90;537.60;;;;;;4978194;28;20078;-69
2021/03/27 10:40:34;;;;;;;13.02;10.02;;;1049.70;537.60;;;;;;4979274;28;20033;-69
2021/03/27 10:43:24;;;;;;;13.32;9.75;;;1101.20;486.40;;;;;;4976216;28;20432;-69
2021/03/27 10:46:13;;;;;;;13.00;10.48;;;1075.60;486.40;;;;;;4977998;28;20407;-66
2021/03/27 10:49:15;;;;;;;13.57;9.83;;;1126.40;512.00;;;;;;4988996;28;20485;-69
2021/03/27 10:52:05;;;;;;;12.48;9.30;;;1050.30;512.00;;;;;;4991880;28;20027;-72
2021/03/27 10:54:49;;;;;;;12.35;9.75;;;1101.30;512.00;;;;;;4991361;28;20037;-68
2021/03/27 10:57:36;;;;;;;12.25;9.07;;;1101.20;512.00;;;;;;4991321;28;20040;-68
2021/03/27 11:00:35;;;;;;;14.63;10.70;;;1024.10;537.60;;;;;;4991235;28;20026;-68
2021/03/27 11:03:31;;;;;;;14.50;9.85;;;922.00;563.20;;;;;;4985772;28;20081;-68
2021/03/27 11:06:31;;;;;;;11.63;9.07;;;794.10;665.60;;;;;;4987737;28;20501;-73
2021/03/27 11:09:50;;;;;;;13.27;10.02;;;716.90;691.20;;;;;;4973443;28;20066;-66
2021/03/27 11:13:03;;;;;;;15.02;10.60;;;640.90;716.80;;;;;;4973702;28;20027;-67
2021/03/27 11:15:59;;;;;;;14.70;10.38;;;614.80;768.00;;;;;;4986562;28;20078;-68
2021/03/27 11:19:10;;;;;;;17.15;12.13;;;588.90;819.20;;;;;;4990590;28;20096;-73
2021/03/27 11:22:03;;;;;;;15.45;10.45;;;588.80;819.20;;;;;;4996577;28;20177;-69
2021/03/27 11:24:43;;;;;;;15.27;10.82;;;564.00;870.40;;;;;;4985400;28;20034;-69
2021/03/27 11:27:42;;;;;;;15.07;11.43;;;563.30;870.40;;;;;;4988397;28;20030;-70
2021/03/27 11:30:47;;;;;;;17.60;11.88;;;563.20;870.40;;;;;;4990213;28;20014;-68
2021/03/27 11:34:06;;;;;;;23.58;16.08;;;563.30;870.40;;;;;;4974876;28;20089;-68
2021/03/27 11:36:44;;;;;;;14.35;10.32;;;563.70;844.80;;;;;;4948803;29;20038;-68
2021/03/27 11:39:21;;;;;;;13.57;9.32;;;563.70;870.40;;;;;;4993501;28;20046;-69
2021/03/27 11:41:57;;;;;;;13.50;9.40;;;563.20;870.40;;;;;;4994533;28;20026;-67
2021/03/27 11:44:40;;;;;;;12.20;8.43;;;563.30;896.00;;;;;;4985648;28;20399;-73
2021/03/27 11:47:17;;;;;;;13.60;9.70;;;563.80;844.80;;;;;;4993294;28;20045;-70
2021/03/27 11:49:49;;;;;;;13.30;9.70;;;563.60;870.40;;;;;;5011645;28;20053;-71
2021/03/27 11:52:39;;;;;;;12.30;8.93;;;563.50;870.40;;;;;;5011282;28;20030;-69
2021/03/27 11:55:07;;;;;;;12.60;8.70;;;563.40;896.00;;;;;;5010251;28;20375;-69
2021/03/27 11:58:02;;;;;;;12.00;8.90;;;563.50;870.40;;;;;;4994045;28;20260;-68
2021/03/27 12:01:19;;;;;;;13.85;8.75;;;564.10;870.40;;;;;;4992980;28;20058;-68
2021/03/27 12:03:55;;;;;;;13.73;9.35;;;563.90;844.80;;;;;;4993711;28;20089;-68
2021/03/27 12:06:51;;;;;;;11.25;8.43;;;563.80;870.40;;;;;;4993495;28;20029;-67
2021/03/27 12:09:41;;;;;;;14.80;10.30;;;563.50;870.40;;;;;;4995258;28;20027;-67
2021/03/27 12:12:25;;;;;;;13.43;9.93;;;538.50;870.40;;;;;;5004885;28;20030;-66
2021/03/27 12:15:28;;;;;;;15.77;9.80;;;538.50;870.40;;;;;;5006374;28;20053;-68
2021/03/27 12:18:30;;;;;;;16.85;10.15;;;538.50;896.00;;;;;;5003802;28;20022;-68
2021/03/27 12:21:09;;;;;;;15.70;10.10;;;538.10;896.00;;;;;;5000156;28;20061;-68
2021/03/27 12:23:40;;;;;;;14.15;9.90;;;538.40;896.00;;;;;;4994912;28;20113;-70
2021/03/27 12:26:27;;;;;;;14.38;9.05;;;538.30;896.00;;;;;;5001401;28;20041;-70
2021/03/27 12:29:07;;;;;;;12.40;8.90;;;538.40;870.40;;;;;;4996236;28;20021;-68
2021/03/27 12:31:45;;;;;;;12.90;8.93;;;563.50;896.00;;;;;;5004005;28;20096;-67
2021/03/27 12:34:29;;;;;;;15.05;10.75;;;563.90;870.40;;;;;;5004288;28;20044;-68
2021/03/27 12:37:01;;;;;;;14.43;10.52;;;563.80;870.40;;;;;;4998341;28;20071;-68
2021/03/27 12:39:44;;;;;;;18.17;10.25;;;563.80;844.80;;;;;;5013112;28;20036;-68
2021/03/27 12:42:18;;;;;;;11.30;8.93;;;563.80;870.40;;;;;;5013091;28;20116;-68
2021/03/27 12:45:01;;;;;;;12.30;8.55;;;563.60;870.40;;;;;;5006012;28;20022;-67
2021/03/27 12:47:35;;;;;;;14.50;9.80;;;563.90;870.40;;;;;;5006784;28;20019;-69
2021/03/27 12:50:34;;;;;;;12.35;8.63;;;563.60;870.40;;;;;;4990199;28;20037;-68
2021/03/27 12:53:18;;;;;;;12.98;9.52;;;563.50;844.80;;;;;;4993620;28;20364;-68
2021/03/27 12:56:30;;;;;;;12.82;8.57;;;563.50;896.00;;;;;;4991645;28;20033;-68
2021/03/27 12:59:28;;;;;;;12.57;7.88;;;563.70;870.40;;;;;;4989503;28;20121;-71
2021/03/27 13:02:47;;;;;;;12.63;9.32;;;589.00;819.20;;;;;;4990384;28;20061;-68
2021/03/27 13:05:18;;;;;;;14.90;10.15;;;589.00;819.20;;;;;;4970080;28;20526;-70
2021/03/27 13:07:56;;;;;;;16.65;10.82;;;589.20;819.20;;;;;;4994920;28;20037;-69
2021/03/27 13:10:36;;;;;;;14.45;10.75;;;640.10;742.40;;;;;;5009532;28;20109;-69
2021/03/27 13:13:29;;;;;;;15.75;10.73;;;742.60;716.80;;;;;;5008591;28;20033;-68
2021/03/27 13:16:29;;;;;;;13.95;10.43;;;820.00;640.00;;;;;;5007765;28;20101;-68
2021/03/27 13:19:22;;;;;;;13.50;9.73;;;896.20;588.80;;;;;;5009633;28;20362;-68
2021/03/27 13:22:05;;;;;;;13.88;11.27;;;896.60;563.20;;;;;;4986436;28;20014;-69
2021/03/27 13:24:33;;;;;;;13.02;10.35;;;921.90;563.20;;;;;;5007818;28;20022;-68
2021/03/27 13:27:10;;;;;;;12.23;9.07;;;947.70;537.60;;;;;;5009672;28;20475;-68
2021/03/27 13:29:44;;;;;;;12.52;9.02;;;921.90;563.20;;;;;;5007578;28;20030;-68
2021/03/27 13:32:24;;;;;;;12.52;10.32;;;921.60;563.20;;;;;;5009792;28;20050;-68
2021/03/27 13:35:14;;;;;;;12.50;9.25;;;845.50;614.40;;;;;;5007584;28;20081;-68
2021/03/27 13:37:46;;;;;;;12.35;9.80;;;794.00;665.60;;;;;;5009770;28;20018;-68
2021/03/27 13:40:24;;;;;;;13.30;9.55;;;717.20;716.80;;;;;;5010398;28;20018;-69